Time;durP1;ratioP1;P1;durP2;ratioP2;P2;SDS_P1;SDS_P2;PMS_P1;PMS_P2;Temp;Humidity;BMP_temperature;BMP_pressure;BME280_temperature;BME280_humidity;BME280_pressure;Samples;Min_cycle;Max_cycle;Signal;HPM_P1;HPM_P2
2022/06/28 00:02:08;;;;;;;;;;;;;;;20.95;100.00;100068.53;5133942;28;19927;-46
2022/06/28 00:04:34;;;;;;;;;;;;;;;20.94;100.00;100062.16;5134171;28;19928;-46
2022/06/28 00:07:01;;;;;;;;;;;;;;;20.96;100.00;100064.53;5133737;28;19928;-45
2022/06/28 00:09:27;;;;;;;;;;;;;;;20.91;100.00;100066.56;5134179;28;19933;-44
2022/06/28 00:11:53;;;;;;;;;;;;;;;20.90;100.00;100072.56;5133750;28;19932;-48
2022/06/28 00:17:03;;;;;;;;;;;;;;;20.74;100.00;100075.88;5133780;28;20435;-45
2022/06/28 00:19:29;;;;;;;;;;;;;;;20.73;100.00;100071.53;5133557;27;20318;-46
2022/06/28 00:21:55;;;;;;;;;;;;;;;20.71;100.00;100079.50;5133572;28;19927;-45
2022/06/28 00:24:22;;;;;;;;;;;;;;;20.72;100.00;100071.91;5133670;28;20405;-46
2022/06/28 00:26:48;;;;;;;;;;;;;;;20.74;100.00;100073.09;5133402;28;19933;-45
2022/06/28 00:29:15;;;;;;;;;;;;;;;20.74;100.00;100075.09;5133414;28;19980;-48
2022/06/28 00:31:41;;;;;;;;;;;;;;;20.66;100.00;100074.38;5133262;28;19934;-45
2022/06/28 00:34:07;;;;;;;;;;;;;;;20.62;100.00;100074.38;5133303;28;20390;-45
2022/06/28 00:36:33;;;;;;;;;;;;;;;20.51;100.00;100072.91;5133701;28;19985;-45
2022/06/28 00:38:59;;;;;;;;;;;;;;;20.54;100.00;100078.44;5133136;28;19932;-48
2022/06/28 00:41:26;;;;;;;;;;;;;;;20.49;100.00;100076.06;5133503;28;19931;-45
2022/06/28 00:43:51;;;;;;;;;;;;;;;;;;5133312;28;19927;-45
2022/06/28 00:46:17;;;;;;;;;;;;;;;20.48;100.00;100065.34;5133574;28;19928;-47
2022/06/28 00:48:43;;;;;;;;;;;;;;;;;;5133101;28;20305;-45
2022/06/28 00:51:09;;;;;;;;;;;;;;;;;;5133245;28;20018;-45
2022/06/28 00:53:35;;;;;;;;;;;;;;;20.47;100.00;100058.97;5132987;28;20424;-48
2022/06/28 00:56:01;;;;;;;;;;;;;;;20.44;100.00;100063.38;5132941;28;19931;-45
2022/06/28 00:58:27;;;;;;;;;;;;;;;20.41;100.00;100064.19;5133017;28;19953;-45
2022/06/28 01:00:54;;;;;;;;;;;;;;;20.36;100.00;100055.47;5132965;28;19933;-47
2022/06/28 01:03:21;;;;;;;;;;;;;;;20.34;100.00;100057.88;5133380;28;19976;-45
2022/06/28 01:05:48;;;;;;;;;;;;;;;20.32;100.00;100054.72;5132804;28;20019;-46
2022/06/28 01:08:14;;;;;;;;;;;;;;;20.29;100.00;100049.97;5133252;28;20405;-45
2022/06/28 01:10:41;;;;;;;;;;;;;;;20.27;100.00;100050.38;5132857;28;20291;-46
2022/06/28 01:13:07;;;;;;;;;;;;;;;20.25;100.00;100038.06;5133039;28;19927;-44
2022/06/28 01:15:34;;;;;;;;;;;;;;;20.25;100.00;100049.19;5132775;28;20366;-45
2022/06/28 01:18:01;;;;;;;;;;;;;;;20.04;100.00;100037.03;5132874;28;20459;-44
2022/06/28 01:20:27;;;;;;;;;;;;;;;20.16;100.00;100044.13;5132869;28;19928;-45
2022/06/28 01:22:54;;;;;;;;;;;;;;;20.09;100.00;100036.59;5132682;28;19928;-44
2022/06/28 01:25:21;;;;;;;;;;;;;;;20.11;100.00;100033.41;5132802;28;19927;-45
2022/06/28 01:27:47;;;;;;;;;;;;;;;20.08;100.00;100028.66;5132485;28;19935;-45
2022/06/28 01:30:13;;;;;;;;;;;;;;;20.08;100.00;100028.66;5132240;27;19934;-45
2022/06/28 01:32:40;;;;;;;;;;;;;;;20.09;100.00;100028.25;5132164;28;20280;-44
2022/06/28 01:35:06;;;;;;;;;;;;;;;20.07;100.00;100025.06;5132785;28;19934;-47
2022/06/28 01:37:33;;;;;;;;;;;;;;;20.06;100.00;100017.13;5132300;28;20414;-45
2022/06/28 01:40:00;;;;;;;;;;;;;;;20.09;100.00;100019.91;5132354;28;19938;-44
2022/06/28 01:42:27;;;;;;;;;;;;;;;20.08;100.00;100018.28;5132633;28;20293;-45
2022/06/28 01:44:53;;;;;;;;;;;;;;;20.07;100.00;100029.84;5132131;28;19927;-45
2022/06/28 01:47:20;;;;;;;;;;;;;;;20.01;100.00;100017.56;5132241;28;20327;-45
2022/06/28 01:49:47;;;;;;;;;;;;;;;19.89;100.00;100013.25;5132300;28;19928;-45
2022/06/28 01:52:13;;;;;;;;;;;;;;;19.85;100.00;99995.81;5132028;28;19927;-46
2022/06/28 01:54:39;;;;;;;;;;;;;;;19.87;100.00;99985.06;5132019;28;19938;-46
2022/06/28 01:57:05;;;;;;;;;;;;;;;19.93;100.00;99998.13;5132068;28;19927;-45
2022/06/28 01:59:31;;;;;;;;;;;;;;;19.98;100.00;99997.69;5131770;28;20394;-48
2022/06/28 02:01:57;;;;;;;;;;;;;;;20.00;100.00;99996.50;5132340;28;19927;-47
2022/06/28 02:04:24;;;;;;;;;;;;;;;20.05;100.00;100007.19;5131844;28;19927;-48
2022/06/28 02:06:50;;;;;;;;;;;;;;;20.08;100.00;100009.16;5132110;28;19928;-45
2022/06/28 02:09:16;;;;;;;;;;;;;;;20.04;100.00;100014.75;5131957;28;19934;-47
2022/06/28 02:11:42;;;;;;;;;;;;;;;20.04;100.00;100013.97;5131763;28;19932;-45
2022/06/28 02:14:09;;;;;;;;;;;;;;;19.98;100.00;100003.25;5131724;28;19928;-47
2022/06/28 02:16:35;;;;;;;;;;;;;;;20.01;100.00;100001.66;5131684;28;19980;-47
2022/06/28 02:19:01;;;;;;;;;;;;;;;20.04;100.00;100011.19;5131739;28;19931;-47
2022/06/28 02:21:27;;;;;;;;;;;;;;;20.11;100.00;100013.91;5131841;28;19934;-48
2022/06/28 02:23:53;;;;;;;;;;;;;;;20.24;100.00;100015.00;5131947;28;19931;-46
2022/06/28 02:26:19;;;;;;;;;;;;;;;20.62;100.00;100032.59;5131500;28;20461;-45
2022/06/28 02:28:44;;;;;;;;;;;;;;;20.99;100.00;100058.13;5132037;28;19931;-47
2022/06/28 02:31:11;;;;;;;;;;;;;;;21.29;100.00;100077.72;5131597;28;19927;-48
2022/06/28 02:33:38;;;;;;;;;;;;;;;21.59;100.00;100082.59;5132001;28;20038;-45
2022/06/28 02:41:32;;;;;;;;;;;;;;;22.29;100.00;99981.47;5130628;27;19934;-48
2022/06/28 02:43:58;;;;;;;;;;;;;;;22.58;100.00;99952.25;5131276;28;19927;-46
2022/06/28 02:46:24;;;;;;;;;;;;;;;22.69;100.00;99906.13;5131504;28;19927;-47
2022/06/28 02:48:51;;;;;;;;;;;;;;;23.01;100.00;99859.94;5131374;28;20355;-47
2022/06/28 02:51:16;;;;;;;;;;;;;;;23.32;100.00;99748.53;5131161;28;19928;-47
2022/06/28 02:53:42;;;;;;;;;;;;;;;23.73;100.00;99653.97;5131069;28;19934;-48
2022/06/28 02:56:08;;;;;;;;;;;;;;;23.83;100.00;99583.69;5131408;28;19931;-47
2022/06/28 02:58:34;;;;;;;;;;;;;;;24.17;100.00;99517.81;5130992;28;19927;-46
2022/06/28 03:01:00;;;;;;;;;;;;;;;24.26;100.00;99439.50;5131321;28;19938;-49
2022/06/28 03:03:27;;;;;;;;;;;;;;;24.48;100.00;99411.53;5131118;28;20014;-48
2022/06/28 03:05:53;;;;;;;;;;;;;;;24.80;100.00;99306.66;5131103;28;19939;-45
2022/06/28 03:08:19;;;;;;;;;;;;;;;24.87;100.00;99255.91;5131338;28;20389;-49
2022/06/28 03:10:45;;;;;;;;;;;;;;;24.78;100.00;99291.53;5131027;28;19933;-46
2022/06/28 03:13:11;;;;;;;;;;;;;;;24.97;100.00;99261.56;5131192;28;19927;-48
2022/06/28 03:15:37;;;;;;;;;;;;;;;25.33;100.00;99109.44;5131176;28;19927;-49
2022/06/28 03:18:03;;;;;;;;;;;;;;;25.62;100.00;99075.25;5131076;28;20414;-49
2022/06/28 03:20:29;;;;;;;;;;;;;;;25.64;100.00;99010.22;5130801;28;20420;-47
2022/06/28 03:22:55;;;;;;;;;;;;;;;26.05;100.00;98975.00;5131217;28;19927;-47
2022/06/28 03:25:21;;;;;;;;;;;;;;;26.27;100.00;98935.41;5130646;28;19951;-46
2022/06/28 03:27:48;;;;;;;;;;;;;;;26.60;100.00;98869.94;5131136;28;20337;-45
2022/06/28 03:30:14;;;;;;;;;;;;;;;26.79;100.00;98791.78;5130844;28;19928;-49
2022/06/28 03:32:40;;;;;;;;;;;;;;;26.84;100.00;98777.84;5130681;28;20026;-47
2022/06/28 03:35:06;;;;;;;;;;;;;;;26.86;100.00;98752.81;5130796;28;19934;-47
2022/06/28 03:37:33;;;;;;;;;;;;;;;27.32;100.00;98718.50;5130711;28;19927;-48
2022/06/28 03:39:59;;;;;;;;;;;;;;;27.06;100.00;98698.66;5130774;28;19950;-46
2022/06/28 03:42:25;;;;;;;;;;;;;;;27.35;100.00;98709.06;5130636;28;19928;-49
2022/06/28 03:44:51;;;;;;;;;;;;;;;27.67;100.00;98653.69;5130734;28;19927;-47
2022/06/28 03:47:17;;;;;;;;;;;;;;;27.76;100.00;98632.25;5130496;28;19933;-49
2022/06/28 03:49:43;;;;;;;;;;;;;;;28.12;100.00;98597.06;5130883;28;20351;-46
2022/06/28 03:52:09;;;;;;;;;;;;;;;28.19;100.00;98598.66;5130197;27;19932;-46
2022/06/28 03:54:36;;;;;;;;;;;;;;;28.68;100.00;98577.00;5134127;28;19978;-46
2022/06/28 03:57:02;;;;;;;;;;;;;;;28.65;100.00;98553.41;5133913;28;19934;-47
2022/06/28 03:59:28;;;;;;;;;;;;;;;28.98;100.00;98543.56;5133797;28;19927;-48
2022/06/28 04:01:54;;;;;;;;;;;;;;;29.26;100.00;98519.09;5134008;28;19934;-46
2022/06/28 04:04:20;;;;;;;;;;;;;;;29.37;100.00;98523.22;5133744;28;19928;-47
2022/06/28 04:06:46;;;;;;;;;;;;;;;29.67;100.00;98523.56;5133844;28;19975;-49
2022/06/28 04:09:12;;;;;;;;;;;;;;;29.70;100.00;98517.66;5133868;28;19935;-48
2022/06/28 04:11:38;;;;;;;;;;;;;;;29.96;100.00;98550.56;5134099;28;20068;-47
2022/06/28 04:14:04;;;;;;;;;;;;;;;30.20;100.00;98533.13;5134196;28;19927;-47
2022/06/28 04:16:32;;;;;;;;;;;;;;;30.59;100.00;98598.13;5134306;28;20405;-46
2022/06/28 04:18:58;;;;;;;;;;;;;;;30.56;100.00;98539.00;5133889;28;20485;-45
2022/06/28 04:21:24;;;;;;;;;;;;;;;30.89;100.00;98600.41;5133898;28;19927;-46
2022/06/28 04:23:50;;;;;;;;;;;;;;;31.10;100.00;98564.06;5133417;28;20311;-47
2022/06/28 04:26:16;;;;;;;;;;;;;;;31.21;100.00;98549.09;5133771;28;19939;-46
2022/06/28 04:28:42;;;;;;;;;;;;;;;31.70;100.00;98606.03;5133439;28;20463;-46
2022/06/28 04:31:08;;;;;;;;;;;;;;;31.64;100.00;98614.56;5133216;28;19934;-46
2022/06/28 04:33:35;;;;;;;;;;;;;;;31.79;100.00;98583.81;5133508;28;19927;-47
2022/06/28 04:36:01;;;;;;;;;;;;;;;31.73;100.00;98585.94;5133289;28;19927;-46
2022/06/28 04:38:26;;;;;;;;;;;;;;;32.19;100.00;98594.88;5133221;28;19931;-47
2022/06/28 04:40:52;;;;;;;;;;;;;;;32.53;100.00;98584.06;5133269;28;19934;-46
2022/06/28 04:43:18;;;;;;;;;;;;;;;32.80;100.00;98583.00;5133063;28;19927;-46
2022/06/28 04:45:45;;;;;;;;;;;;;;;33.08;100.00;98607.50;5132970;28;19927;-46
2022/06/28 04:48:11;;;;;;;;;;;;;;;33.16;100.00;98608.47;5133420;28;19928;-46
2022/06/28 04:50:37;;;;;;;;;;;;;;;33.29;100.00;98619.16;5132879;28;19982;-47
2022/06/28 04:53:03;;;;;;;;;;;;;;;33.60;100.00;98631.97;5133178;28;19934;-46
2022/06/28 04:55:29;;;;;;;;;;;;;;;33.81;100.00;98657.00;5132815;28;19938;-47
2022/06/28 04:57:55;;;;;;;;;;;;;;;33.98;100.00;98745.69;5132677;28;19927;-46
2022/06/28 05:00:21;;;;;;;;;;;;;;;34.16;100.00;98747.81;5133037;28;19931;-47
2022/06/28 05:02:47;;;;;;;;;;;;;;;34.07;100.00;98693.38;5132726;28;19934;-46
2022/06/28 05:05:13;;;;;;;;;;;;;;;34.40;100.00;98806.72;5131877;27;20441;-46
2022/06/28 05:07:39;;;;;;;;;;;;;;;34.71;100.00;98861.41;5132640;28;19932;-47
2022/06/28 05:10:06;;;;;;;;;;;;;;;34.77;100.00;98918.28;5132950;28;19935;-46
2022/06/28 05:12:32;;;;;;;;;;;;;;;34.87;100.00;98911.66;5132733;28;19975;-47
2022/06/28 05:14:58;;;;;;;;;;;;;;;35.04;100.00;98811.75;5132833;28;20564;-47
2022/06/28 05:17:24;;;;;;;;;;;;;;;34.87;100.00;98777.81;5132635;28;19928;-47
2022/06/28 05:19:52;;;;;;;;;;;;;;;34.93;100.00;98842.47;5132485;28;19927;-45
2022/06/28 05:22:18;;;;;;;;;;;;;;;35.28;100.00;98790.13;5132604;28;19927;-50
2022/06/28 05:24:44;;;;;;;;;;;;;;;35.32;100.00;98810.50;5132353;28;19934;-48
2022/06/28 05:27:10;;;;;;;;;;;;;;;35.54;100.00;98830.09;5132514;28;19927;-47
2022/06/28 05:29:36;;;;;;;;;;;;;;;35.46;100.00;98902.53;5132336;28;19988;-47
2022/06/28 05:32:02;;;;;;;;;;;;;;;35.85;100.00;98849.75;5132360;28;19934;-47
2022/06/28 05:34:27;;;;;;;;;;;;;;;36.01;100.00;98855.16;5132164;28;19966;-50
2022/06/28 05:36:54;;;;;;;;;;;;;;;35.98;100.00;98841.19;5132275;28;19927;-49
2022/06/28 05:39:21;;;;;;;;;;;;;;;35.91;100.00;98848.31;5132276;28;19927;-50
2022/06/28 05:41:46;;;;;;;;;;;;;;;36.36;100.00;98918.81;5132327;28;19963;-47
2022/06/28 05:44:14;;;;;;;;;;;;;;;36.16;100.00;98960.19;5132397;28;19950;-48
2022/06/28 05:46:40;;;;;;;;;;;;;;;36.55;100.00;98941.53;5131988;28;20429;-50
2022/06/28 05:49:06;;;;;;;;;;;;;;;36.55;100.00;98966.47;5132102;28;19927;-47
2022/06/28 05:51:32;;;;;;;;;;;;;;;36.10;100.00;98959.50;5132025;28;19933;-46
2022/06/28 05:53:59;;;;;;;;;;;;;;;35.69;100.00;98963.59;5132009;28;19974;-48
2022/06/28 05:56:25;;;;;;;;;;;;;;;37.09;100.00;99017.28;5131913;28;19928;-47
2022/06/28 05:58:51;;;;;;;;;;;;;;;37.08;100.00;99018.59;5131901;28;19927;-45
2022/06/28 06:01:17;;;;;;;;;;;;;;;36.33;100.00;98964.81;5131513;28;20374;-47
2022/06/28 06:03:43;;;;;;;;;;;;;;;37.33;100.00;98941.91;5131661;28;19980;-45
2022/06/28 06:06:09;;;;;;;;;;;;;;;36.57;100.00;98998.84;5131536;28;19927;-46
2022/06/28 06:08:35;;;;;;;;;;;;;;;36.53;100.00;98966.25;5131791;28;19934;-46
2022/06/28 06:11:02;;;;;;;;;;;;;;;36.96;100.00;98957.28;5131762;28;19928;-48
2022/06/28 06:13:28;;;;;;;;;;;;;;;36.33;100.00;98964.81;5131647;28;19927;-47
2022/06/28 06:15:54;;;;;;;;;;;;;;;37.33;100.00;99030.53;5131627;27;19927;-47
2022/06/28 06:18:20;;;;;;;;;;;;;;;37.21;100.00;99032.84;5131733;28;19935;-46
2022/06/28 06:20:46;;;;;;;;;;;;;;;37.06;100.00;98961.25;5131894;28;20365;-48
2022/06/28 06:23:12;;;;;;;;;;;;;;;37.09;100.00;99065.88;5131500;28;19927;-48
2022/06/28 06:25:38;;;;;;;;;;;;;;;36.75;100.00;99054.31;5131438;28;19969;-47
2022/06/28 06:28:05;;;;;;;;;;;;;;;37.19;100.00;99051.91;5131299;28;19928;-47
2022/06/28 06:30:31;;;;;;;;;;;;;;;36.84;100.00;99062.44;5131363;28;20418;-50
2022/06/28 06:32:57;;;;;;;;;;;;;;;37.07;100.00;99079.16;5131155;28;19953;-45
2022/06/28 06:35:23;;;;;;;;;;;;;;;37.28;100.00;99085.72;5131064;28;19928;-46
2022/06/28 06:37:49;;;;;;;;;;;;;;;37.36;100.00;99078.03;5131292;28;19928;-48
2022/06/28 06:40:16;;;;;;;;;;;;;;;37.51;100.00;98988.81;5131204;28;19928;-47
2022/06/28 06:42:42;;;;;;;;;;;;;;;37.31;100.00;99089.56;5131399;28;19950;-50
2022/06/28 06:45:09;;;;;;;;;;;;;;;36.97;100.00;99096.00;5130974;28;20394;-48
2022/06/28 06:47:35;;;;;;;;;;;;;;;36.99;100.00;99081.94;5131441;28;19927;-47
2022/06/28 06:50:07;;;;;;;;;;;;;;;36.78;100.00;99046.75;5131003;28;20299;-47
2022/06/28 06:52:33;;;;;;;;;;;;;;;36.94;100.00;99037.81;5131059;28;20287;-47
2022/06/28 06:54:59;;;;;;;;;;;;;;;37.09;100.00;99047.94;5130838;28;19980;-49
2022/06/28 06:57:25;;;;;;;;;;;;;;;37.44;100.00;99047.44;5130829;28;19953;-52
2022/06/28 06:59:51;;;;;;;;;;;;;;;37.51;100.00;99085.25;5130787;28;19927;-47
2022/06/28 07:02:17;;;;;;;;;;;;;;;37.50;100.00;99058.00;5130830;28;19927;-49
2022/06/28 07:04:43;;;;;;;;;;;;;;;37.73;100.00;99101.16;5130703;28;19927;-50
2022/06/28 07:07:09;;;;;;;;;;;;;;;38.22;100.00;99104.13;5130912;28;19932;-46
2022/06/28 07:09:35;;;;;;;;;;;;;;;38.52;100.00;99095.06;5130959;28;19927;-47
2022/06/28 07:12:01;;;;;;;;;;;;;;;38.52;100.00;99065.63;5130728;28;19927;-49
2022/06/28 07:14:27;;;;;;;;;;;;;;;38.48;100.00;99053.78;5130945;28;20389;-49
2022/06/28 07:16:53;;;;;;;;;;;;;;;38.42;100.00;99110.44;5130650;28;19980;-49
2022/06/28 07:19:19;;;;;;;;;;;;;;;37.99;100.00;99117.44;5130648;28;19927;-49
2022/06/28 07:21:45;;;;;;;;;;;;;;;37.89;100.00;99102.84;5130472;28;19927;-47
2022/06/28 07:24:12;;;;;;;;;;;;;;;37.63;100.00;99073.00;5130512;28;19927;-47
2022/06/28 07:26:37;;;;;;;;;;;;;;;37.50;100.00;99058.75;5130526;28;19947;-47
2022/06/28 07:29:04;;;;;;;;;;;;;;;37.21;100.00;99115.75;5133084;27;19927;-49
2022/06/28 07:31:31;;;;;;;;;;;;;;;35.91;100.00;99102.19;5134018;28;19931;-50
2022/06/28 07:33:57;;;;;;;;;;;;;;;36.12;100.00;99095.91;5134347;28;19955;-47
2022/06/28 07:36:24;;;;;;;;;;;;;;;37.26;100.00;99064.75;5134343;28;19941;-47
2022/06/28 07:38:50;;;;;;;;;;;;;;;37.11;100.00;99116.75;5134235;28;19935;-46
2022/06/28 07:41:16;;;;;;;;;;;;;;;37.84;100.00;99121.66;5134469;28;20679;-49
2022/06/28 07:43:42;;;;;;;;;;;;;;;37.98;100.00;99159.63;5133909;28;19934;-48
2022/06/28 07:46:08;;;;;;;;;;;;;;;38.33;100.00;99129.63;5134000;28;19928;-49
2022/06/28 07:48:34;;;;;;;;;;;;;;;38.22;100.00;99187.16;5133745;28;19934;-46
2022/06/28 07:53:44;;;;;;;;;;;;;;;38.23;100.00;99114.28;5133618;28;19934;-50
2022/06/28 07:56:10;;;;;;;;;;;;;;;38.11;100.00;99119.50;5133778;28;19953;-47
2022/06/28 07:58:39;;;;;;;;;;;;;;;37.68;100.00;99060.66;5133731;28;19927;-47
2022/06/28 08:01:06;;;;;;;;;;;;;;;37.87;100.00;99126.28;5133619;28;19927;-48
2022/06/28 08:03:32;;;;;;;;;;;;;;;38.58;100.00;99112.09;5133842;28;19934;-50
2022/06/28 08:05:58;;;;;;;;;;;;;;;38.86;100.00;99110.59;5133514;28;19927;-48
2022/06/28 08:08:23;;;;;;;;;;;;;;;38.33;100.00;99123.91;5133804;28;19975;-48
2022/06/28 08:10:50;;;;;;;;;;;;;;;37.95;100.00;99094.91;5133593;28;20398;-48
2022/06/28 08:13:16;;;;;;;;;;;;;;;38.38;100.00;99133.69;5133678;28;19927;-48
2022/06/28 08:15:42;;;;;;;;;;;;;;;37.83;100.00;99151.63;5133472;28;20289;-49
2022/06/28 08:18:09;;;;;;;;;;;;;;;38.75;100.00;99100.16;5133490;28;20366;-48
2022/06/28 08:20:35;;;;;;;;;;;;;;;39.41;100.00;99139.78;5133494;28;19928;-47
2022/06/28 08:23:01;;;;;;;;;;;;;;;39.27;100.00;99129.78;5133320;28;19976;-48
2022/06/28 08:25:27;;;;;;;;;;;;;;;39.29;100.00;99136.47;5133215;28;20018;-49
2022/06/28 08:27:53;;;;;;;;;;;;;;;39.30;100.00;99152.34;5133130;28;19992;-48
2022/06/28 08:30:20;;;;;;;;;;;;;;;38.86;100.00;99142.88;5133369;28;19931;-49
2022/06/28 08:32:46;;;;;;;;;;;;;;;39.32;100.00;99151.00;5133119;28;20298;-47
2022/06/28 08:35:12;;;;;;;;;;;;;;;38.39;100.00;99169.59;5133340;28;20362;-50
2022/06/28 08:37:38;;;;;;;;;;;;;;;38.83;100.00;99150.50;5133276;28;20033;-47
2022/06/28 08:40:06;;;;;;;;;;;;;;;37.75;100.00;99115.66;5131228;27;20299;-51
2022/06/28 08:42:35;;;;;;;;;;;;;;;38.01;100.00;99146.28;5133124;28;19996;-50
2022/06/28 08:45:03;;;;;;;;;;;;;;;38.25;100.00;99134.50;5133151;28;20026;-49
2022/06/28 08:47:31;;;;;;;;;;;;;;;38.77;100.00;99132.66;5132871;28;19927;-49
2022/06/28 08:50:00;;;;;;;;;;;;;;;38.96;100.00;99123.84;5132859;28;19933;-47
2022/06/28 08:52:26;;;;;;;;;;;;;;;37.80;100.00;99100.47;5132964;28;20390;-48
2022/06/28 08:54:53;;;;;;;;;;;;;;;36.94;100.00;99103.53;5132703;28;19980;-47
2022/06/28 08:57:19;;;;;;;;;;;;;;;36.58;100.00;99085.28;5133095;28;19944;-48
2022/06/28 08:59:46;;;;;;;;;;;;;;;36.29;100.00;99080.06;5132773;28;19927;-47
2022/06/28 09:02:14;;;;;;;;;;;;;;;35.52;100.00;99077.88;5132978;28;19927;-47
2022/06/28 09:04:44;;;;;;;;;;;;;;;35.78;100.00;99027.97;5132497;28;20368;-47
2022/06/28 09:07:10;;;;;;;;;;;;;;;36.64;100.00;99083.88;5132752;28;20022;-47
2022/06/28 09:09:36;;;;;;;;;;;;;;;36.93;100.00;99099.16;5132687;28;20021;-46
2022/06/28 09:12:02;;;;;;;;;;;;;;;37.56;100.00;99087.25;5132598;28;20484;-48
2022/06/28 09:14:30;;;;;;;;;;;;;;;37.94;100.00;99098.34;5132709;28;19927;-49
2022/06/28 09:16:57;;;;;;;;;;;;;;;37.18;100.00;99099.69;5132648;28;20306;-45
2022/06/28 09:19:34;;;;;;;;;;;;;;;37.67;100.00;99086.97;5132728;28;20080;-46
2022/06/28 09:22:00;;;;;;;;;;;;;;;36.81;100.00;99106.38;5132388;28;19938;-46
2022/06/28 09:24:27;;;;;;;;;;;;;;;37.14;100.00;99044.19;5132795;28;19988;-47
2022/06/28 09:26:54;;;;;;;;;;;;;;;37.34;100.00;99074.16;5132532;28;20039;-46
2022/06/28 09:29:20;;;;;;;;;;;;;;;38.14;100.00;99084.03;5132780;28;19932;-47
2022/06/28 09:31:46;;;;;;;;;;;;;;;37.72;100.00;99100.34;5132087;28;19933;-48
2022/06/28 09:34:13;;;;;;;;;;;;;;;38.55;98.64;99128.28;5132557;28;19927;-46
2022/06/28 09:36:41;;;;;;;;;;;;;;;38.26;100.00;99107.44;5132258;28;20435;-48
2022/06/28 09:39:11;;;;;;;;;;;;;;;38.42;100.00;99101.84;5132462;28;19927;-46
2022/06/28 09:41:38;;;;;;;;;;;;;;;37.98;98.09;99121.66;5132109;28;19931;-48
2022/06/28 09:44:04;;;;;;;;;;;;;;;37.18;99.53;99113.97;5131991;28;20441;-46
2022/06/28 09:46:31;;;;;;;;;;;;;;;36.61;100.00;99035.66;5132177;28;19931;-48
2022/06/28 09:48:58;;;;;;;;;;;;;;;36.00;100.00;99021.13;5132195;28;19968;-47
2022/06/28 09:51:25;;;;;;;;;;;;;;;36.12;100.00;99025.34;5131290;27;19928;-45
2022/06/28 09:53:52;;;;;;;;;;;;;;;37.31;100.00;99043.84;5131917;28;20465;-48
2022/06/28 09:56:21;;;;;;;;;;;;;;;37.51;100.00;99051.72;5132203;28;19934;-57
2022/06/28 09:58:48;;;;;;;;;;;;;;;38.24;100.00;99060.63;5131833;28;19972;-55
2022/06/28 10:01:15;;;;;;;;;;;;;;;38.64;100.00;99060.38;5132117;28;20400;-52
2022/06/28 10:03:42;;;;;;;;;;;;;;;38.35;100.00;99083.25;5131734;28;20398;-53
2022/06/28 10:06:08;;;;;;;;;;;;;;;38.14;100.00;99098.34;5132045;28;20411;-55
2022/06/28 10:08:34;;;;;;;;;;;;;;;38.92;100.00;99082.53;5131604;28;19927;-54
2022/06/28 10:11:02;;;;;;;;;;;;;;;38.87;99.06;99083.47;5131752;28;19976;-56
2022/06/28 10:16:31;;;;;;;;;;;;;;;35.85;100.00;99035.13;5068402;28;19929;-54
2022/06/28 10:18:58;;;;;;;;;;;;;;;35.53;100.00;99002.44;5119315;28;20358;-55
2022/06/28 10:21:46;;;;;;;;;;;;;;;34.66;100.00;99002.53;5131235;28;19934;-57
2022/06/28 10:24:13;;;;;;;;;;;;;;;34.85;100.00;98994.00;5131898;28;20029;-54
2022/06/28 10:26:43;;;;;;;;;;;;;;;34.91;100.00;98974.00;5131450;28;19989;-51
2022/06/28 10:29:12;;;;;;;;;;;;;;;34.95;100.00;99025.72;5131320;28;20305;-56
2022/06/28 10:31:39;;;;;;;;;;;;;;;34.60;100.00;98973.38;5131278;28;19939;-56
2022/06/28 10:34:08;;;;;;;;;;;;;;;34.83;100.00;98928.31;5131383;28;19935;-58
2022/06/28 10:36:44;;;;;;;;;;;;;;;33.99;100.00;99028.78;5131475;28;20026;-55
2022/06/28 10:39:21;;;;;;;;;;;;;;;35.05;100.00;98980.59;5131224;28;20409;-54
2022/06/28 10:41:48;;;;;;;;;;;;;;;34.73;100.00;99026.78;5131330;28;19933;-51
2022/06/28 10:44:15;;;;;;;;;;;;;;;34.05;100.00;98991.78;5131062;28;19962;-53
2022/06/28 10:46:42;;;;;;;;;;;;;;;33.92;100.00;98989.53;5131046;28;19931;-54
2022/06/28 10:49:09;;;;;;;;;;;;;;;33.50;100.00;98994.53;5131129;28;20417;-55
2022/06/28 10:51:36;;;;;;;;;;;;;;;33.58;100.00;98980.53;5131016;28;19928;-54
2022/06/28 10:54:04;;;;;;;;;;;;;;;33.67;100.00;98974.50;5131255;28;20004;-54
2022/06/28 10:56:31;;;;;;;;;;;;;;;33.36;100.00;98914.03;5130954;28;19935;-55
2022/06/28 10:58:58;;;;;;;;;;;;;;;33.50;100.00;98883.72;5131372;28;19927;-57
2022/06/28 11:01:43;;;;;;;;;;;;;;;34.04;100.00;98928.44;5130777;28;19931;-54
2022/06/28 11:04:10;;;;;;;;;;;;;;;34.04;100.00;98961.81;5130156;28;19953;-57
2022/06/28 11:06:39;;;;;;;;;;;;;;;33.72;100.00;98943.19;5130734;28;20397;-56
2022/06/28 11:09:09;;;;;;;;;;;;;;;34.04;100.00;98967.50;5131222;28;19927;-55
2022/06/28 11:11:34;;;;;;;;;;;;;;;34.29;100.00;98985.31;5130952;28;19936;-52
2022/06/28 11:14:24;;;;;;;;;;;;;;;34.52;100.00;99003.72;5130624;28;19932;-58
2022/06/28 11:16:51;;;;;;;;;;;;;;;34.36;100.00;98981.91;5105373;28;19938;-55
2022/06/28 11:19:17;;;;;;;;;;;;;;;34.14;100.00;98958.06;5130669;28;20347;-55
2022/06/28 11:21:44;;;;;;;;;;;;;;;34.10;100.00;98951.13;5130604;28;19935;-55
2022/06/28 11:24:10;;;;;;;;;;;;;;;34.05;100.00;98955.56;5130513;28;19935;-57
2022/06/28 11:29:20;;;;;;;;;;;;;;;34.28;100.00;98924.81;5130552;28;19939;-61
2022/06/28 11:31:46;;;;;;;;;;;;;;;34.28;100.00;98963.88;5130456;28;19927;-58
2022/06/28 11:34:13;;;;;;;;;;;;;;;34.01;100.00;98966.47;5130450;28;19939;-60
2022/06/28 11:36:39;;;;;;;;;;;;;;;34.38;100.00;98943.06;5130421;28;19928;-61
2022/06/28 11:39:16;;;;;;;;;;;;;;;34.46;100.00;98945.28;5130765;28;19934;-61
2022/06/28 11:41:47;;;;;;;;;;;;;;;33.94;100.00;98998.31;5130654;28;19928;-61
2022/06/28 11:44:13;;;;;;;;;;;;;;;34.31;100.00;98962.81;5130371;28;19928;-60
2022/06/28 11:46:39;;;;;;;;;;;;;;;34.38;100.00;98980.03;5130452;28;19927;-60
2022/06/28 11:49:05;;;;;;;;;;;;;;;34.23;100.00;98978.94;5130883;28;19952;-60
2022/06/28 11:51:32;;;;;;;;;;;;;;;34.18;100.00;98994.75;5130639;28;20454;-60
2022/06/28 11:53:59;;;;;;;;;;;;;;;34.12;100.00;98943.63;5130889;28;20257;-61
2022/06/28 11:56:25;;;;;;;;;;;;;;;34.04;100.00;98905.69;5130324;28;20449;-61
2022/06/28 11:58:51;;;;;;;;;;;;;;;33.73;100.00;98909.84;5129798;28;19927;-62
2022/06/28 12:01:22;;;;;;;;;;;;;;;33.28;100.00;98899.59;5130199;28;20274;-59
2022/06/28 12:03:56;;;;;;;;;;;;;;;33.07;100.00;98877.81;5130136;28;20030;-64
2022/06/28 12:06:24;;;;;;;;;;;;;;;32.82;100.00;98889.03;5130268;28;19927;-63
2022/06/28 12:08:52;;;;;;;;;;;;;;;32.68;100.00;98867.44;5130248;28;20364;-62
2022/06/28 12:11:24;;;;;;;;;;;;;;;33.01;100.00;98881.47;5130098;28;20025;-61
2022/06/28 12:13:54;;;;;;;;;;;;;;;33.13;100.00;98865.13;5130570;27;20035;-60
2022/06/28 12:16:22;;;;;;;;;;;;;;;32.87;100.00;98850.56;5133909;28;19933;-60
2022/06/28 12:18:51;;;;;;;;;;;;;;;32.84;100.00;98792.00;5133568;28;19927;-59
2022/06/28 12:21:17;;;;;;;;;;;;;;;32.98;100.00;98793.72;5115486;28;19931;-60
2022/06/28 12:23:47;;;;;;;;;;;;;;;32.29;100.00;98823.78;5133873;28;19995;-55
2022/06/28 12:26:14;;;;;;;;;;;;;;;32.29;100.00;98801.09;5133338;28;19933;-51
2022/06/28 12:28:40;;;;;;;;;;;;;;;32.56;100.00;98847.66;5133460;28;19937;-55
2022/06/28 12:31:06;;;;;;;;;;;;;;;32.80;100.00;98797.97;5133156;28;19934;-55
2022/06/28 12:33:32;;;;;;;;;;;;;;;32.46;100.00;98840.00;5133648;28;19927;-52
2022/06/28 12:35:59;;;;;;;;;;;;;;;32.39;100.00;98854.66;5133398;28;20493;-54
2022/06/28 12:38:25;;;;;;;;;;;;;;;32.54;100.00;98853.09;5133683;28;19927;-55
2022/06/28 12:40:51;;;;;;;;;;;;;;;32.71;100.00;98889.13;5133479;28;19934;-55
2022/06/28 12:43:17;;;;;;;;;;;;;;;32.63;100.00;98859.75;5133600;28;19950;-56
2022/06/28 12:45:43;;;;;;;;;;;;;;;32.56;100.00;98875.28;5132736;28;20025;-55
2022/06/28 12:48:09;;;;;;;;;;;;;;;32.55;100.00;98862.34;5133154;28;19935;-55
2022/06/28 12:50:35;;;;;;;;;;;;;;;32.46;100.00;98828.63;5132976;28;20305;-53
2022/06/28 12:53:01;;;;;;;;;;;;;;;32.55;100.00;98748.84;5132893;28;19927;-56